4.33C
переменная облачность
переменная облачность
Дата и времяТемператураДавление, мм рт.ст.Влажность, %Осадки
МинимумМаксимум
14.04.2024 08:004.33C6.84C75989облачно с прояснениями
14.04.2024 11:006.09C9.6C75984облачно с прояснениями
14.04.2024 14:009.98C12.8C75767пасмурно
14.04.2024 17:0013.51C13.51C75555небольшой дождь
14.04.2024 20:0013.39C13.39C75360пасмурно
14.04.2024 23:0011.29C11.29C75080небольшой дождь
15.04.2024 02:0010.57C10.57C74788дождь
15.04.2024 05:0010.13C10.13C74686небольшой дождь
15.04.2024 08:006.77C6.77C74772небольшой дождь
15.04.2024 11:007.63C7.63C74864переменная облачность
15.04.2024 14:006.43C6.43C74962облачно с прояснениями
15.04.2024 17:007.49C7.49C74958пасмурно
15.04.2024 20:008.69C8.69C74758небольшой дождь
15.04.2024 23:006.61C6.61C74774небольшой дождь
16.04.2024 02:005.96C5.96C74776небольшой дождь
16.04.2024 05:005.95C5.95C74773небольшой дождь
16.04.2024 08:005.75C5.75C74775пасмурно
16.04.2024 11:007.51C7.51C74759облачно с прояснениями
16.04.2024 14:0010.14C10.14C74742облачно с прояснениями
16.04.2024 17:0011.86C11.86C74740облачно с прояснениями
16.04.2024 20:009.72C9.72C74767небольшой дождь
16.04.2024 23:009.59C9.59C74677небольшой дождь
17.04.2024 02:008.76C8.76C74562небольшой дождь
17.04.2024 05:006.29C6.29C74567пасмурно
17.04.2024 08:005.6C5.6C74770пасмурно
17.04.2024 11:005.54C5.54C75072пасмурно
17.04.2024 14:006.88C6.88C75164небольшой дождь
17.04.2024 17:007.98C7.98C75256пасмурно
17.04.2024 20:008.31C8.31C75357пасмурно
17.04.2024 23:007.71C7.71C75557пасмурно
18.04.2024 02:006.3C6.3C75670пасмурно
18.04.2024 05:004.79C4.79C75776облачно с прояснениями
18.04.2024 08:004.7C4.7C75874пасмурно
18.04.2024 11:007.11C7.11C75861пасмурно
18.04.2024 14:008.86C8.86C75853пасмурно
18.04.2024 17:008.73C8.73C75763небольшой дождь
18.04.2024 20:006.35C6.35C75684небольшой дождь
18.04.2024 23:005.14C5.14C75589дождь
19.04.2024 02:004.55C4.55C75192дождь
19.04.2024 05:005.01C5.01C74993дождь
Дата и время наблюдения: 14.04.2024 07:15:12